sensor_id;sensor_type;location;lat;lon;timestamp;P1;durP1;ratioP1;P2;durP2;ratioP2
261;SDS011;114;48.260;10.988;2022-11-15T00:02:01;11.23;;;8.90;;
261;SDS011;114;48.260;10.988;2022-11-15T00:04:29;10.20;;;8.73;;
261;SDS011;114;48.260;10.988;2022-11-15T00:06:55;10.33;;;8.70;;
261;SDS011;114;48.260;10.988;2022-11-15T00:09:20;13.67;;;10.30;;
261;SDS011;114;48.260;10.988;2022-11-15T00:11:46;10.27;;;9.00;;
261;SDS011;114;48.260;10.988;2022-11-15T00:14:13;13.43;;;9.93;;
261;SDS011;114;48.260;10.988;2022-11-15T00:16:39;11.23;;;8.53;;
261;SDS011;114;48.260;10.988;2022-11-15T00:19:05;9.47;;;8.43;;
261;SDS011;114;48.260;10.988;2022-11-15T00:21:31;11.33;;;9.60;;
261;SDS011;114;48.260;10.988;2022-11-15T00:23:58;11.00;;;9.30;;
261;SDS011;114;48.260;10.988;2022-11-15T00:26:24;15.43;;;8.97;;
261;SDS011;114;48.260;10.988;2022-11-15T00:28:51;12.27;;;9.30;;
261;SDS011;114;48.260;10.988;2022-11-15T00:31:17;18.27;;;9.90;;
261;SDS011;114;48.260;10.988;2022-11-15T00:33:44;9.57;;;8.43;;
261;SDS011;114;48.260;10.988;2022-11-15T00:36:10;10.13;;;8.40;;
261;SDS011;114;48.260;10.988;2022-11-15T00:38:37;8.73;;;7.83;;
261;SDS011;114;48.260;10.988;2022-11-15T00:41:05;13.77;;;9.00;;
261;SDS011;114;48.260;10.988;2022-11-15T00:43:33;13.23;;;9.50;;
261;SDS011;114;48.260;10.988;2022-11-15T00:46:00;10.03;;;9.10;;
261;SDS011;114;48.260;10.988;2022-11-15T00:48:27;15.47;;;7.80;;
261;SDS011;114;48.260;10.988;2022-11-15T00:50:54;8.73;;;7.93;;
261;SDS011;114;48.260;10.988;2022-11-15T00:53:21;8.20;;;7.40;;
261;SDS011;114;48.260;10.988;2022-11-15T00:55:47;9.43;;;8.00;;
261;SDS011;114;48.260;10.988;2022-11-15T00:58:13;10.93;;;7.13;;
261;SDS011;114;48.260;10.988;2022-11-15T01:00:38;7.17;;;6.47;;
261;SDS011;114;48.260;10.988;2022-11-15T01:03:04;7.87;;;7.17;;
261;SDS011;114;48.260;10.988;2022-11-15T01:05:30;9.37;;;7.40;;
261;SDS011;114;48.260;10.988;2022-11-15T01:07:56;7.50;;;6.83;;
261;SDS011;114;48.260;10.988;2022-11-15T01:10:23;9.57;;;8.20;;
261;SDS011;114;48.260;10.988;2022-11-15T01:12:50;7.60;;;6.57;;
261;SDS011;114;48.260;10.988;2022-11-15T01:15:15;8.43;;;7.17;;
261;SDS011;114;48.260;10.988;2022-11-15T01:17:41;7.63;;;6.83;;
261;SDS011;114;48.260;10.988;2022-11-15T01:20:07;7.67;;;6.90;;
261;SDS011;114;48.260;10.988;2022-11-15T01:22:34;7.90;;;7.20;;
261;SDS011;114;48.260;10.988;2022-11-15T01:24:59;13.67;;;8.60;;
261;SDS011;114;48.260;10.988;2022-11-15T01:27:25;10.20;;;8.37;;
261;SDS011;114;48.260;10.988;2022-11-15T01:29:51;9.77;;;7.93;;
261;SDS011;114;48.260;10.988;2022-11-15T01:32:16;9.57;;;7.33;;
261;SDS011;114;48.260;10.988;2022-11-15T01:34:42;8.23;;;7.43;;
261;SDS011;114;48.260;10.988;2022-11-15T01:37:08;9.00;;;7.07;;
261;SDS011;114;48.260;10.988;2022-11-15T01:39:34;11.60;;;8.13;;
261;SDS011;114;48.260;10.988;2022-11-15T01:41:59;10.80;;;8.07;;
261;SDS011;114;48.260;10.988;2022-11-15T01:44:31;9.53;;;7.43;;
261;SDS011;114;48.260;10.988;2022-11-15T01:49:55;9.80;;;7.77;;
261;SDS011;114;48.260;10.988;2022-11-15T01:52:26;9.80;;;6.23;;
261;SDS011;114;48.260;10.988;2022-11-15T01:55:28;8.13;;;7.10;;
261;SDS011;114;48.260;10.988;2022-11-15T01:57:50;8.20;;;7.40;;
261;SDS011;114;48.260;10.988;2022-11-15T02:00:18;8.00;;;7.00;;
261;SDS011;114;48.260;10.988;2022-11-15T02:02:44;8.10;;;7.30;;
261;SDS011;114;48.260;10.988;2022-11-15T02:05:10;8.73;;;7.90;;
261;SDS011;114;48.260;10.988;2022-11-15T02:07:36;8.07;;;7.27;;
261;SDS011;114;48.260;10.988;2022-11-15T02:10:09;11.80;;;8.00;;
261;SDS011;114;48.260;10.988;2022-11-15T02:12:37;12.07;;;7.77;;
261;SDS011;114;48.260;10.988;2022-11-15T02:15:03;8.13;;;7.30;;
261;SDS011;114;48.260;10.988;2022-11-15T02:28:48;12.30;;;8.97;;
261;SDS011;114;48.260;10.988;2022-11-15T02:31:29;11.67;;;7.77;;
261;SDS011;114;48.260;10.988;2022-11-15T02:34:22;11.73;;;8.17;;
261;SDS011;114;48.260;10.988;2022-11-15T02:39:50;15.03;;;8.73;;
261;SDS011;114;48.260;10.988;2022-11-15T02:42:27;8.80;;;8.00;;
261;SDS011;114;48.260;10.988;2022-11-15T02:45:26;10.17;;;8.57;;
261;SDS011;114;48.260;10.988;2022-11-15T02:47:57;9.43;;;8.10;;
261;SDS011;114;48.260;10.988;2022-11-15T02:50:27;9.67;;;8.73;;
261;SDS011;114;48.260;10.988;2022-11-15T02:52:55;11.37;;;8.13;;
261;SDS011;114;48.260;10.988;2022-11-15T02:55:24;9.70;;;8.70;;
261;SDS011;114;48.260;10.988;2022-11-15T02:57:58;10.97;;;9.00;;
261;SDS011;114;48.260;10.988;2022-11-15T03:00:56;10.10;;;8.33;;
261;SDS011;114;48.260;10.988;2022-11-15T03:09:07;9.20;;;8.00;;
261;SDS011;114;48.260;10.988;2022-11-15T03:11:48;12.30;;;7.40;;
261;SDS011;114;48.260;10.988;2022-11-15T03:14:22;9.90;;;8.87;;
261;SDS011;114;48.260;10.988;2022-11-15T03:19:47;10.17;;;7.57;;
261;SDS011;114;48.260;10.988;2022-11-15T03:22:27;8.43;;;7.53;;
261;SDS011;114;48.260;10.988;2022-11-15T03:24:59;12.73;;;8.60;;
261;SDS011;114;48.260;10.988;2022-11-15T03:27:31;10.47;;;7.70;;
261;SDS011;114;48.260;10.988;2022-11-15T03:30:04;8.43;;;7.63;;
261;SDS011;114;48.260;10.988;2022-11-15T03:32:37;8.03;;;7.23;;
261;SDS011;114;48.260;10.988;2022-11-15T03:35:23;7.53;;;6.73;;
261;SDS011;114;48.260;10.988;2022-11-15T03:41:05;8.10;;;6.60;;
261;SDS011;114;48.260;10.988;2022-11-15T03:46:46;10.80;;;6.83;;
261;SDS011;114;48.260;10.988;2022-11-15T03:49:22;8.27;;;6.80;;
261;SDS011;114;48.260;10.988;2022-11-15T03:51:56;7.20;;;6.50;;
261;SDS011;114;48.260;10.988;2022-11-15T03:54:23;7.47;;;6.70;;
261;SDS011;114;48.260;10.988;2022-11-15T03:56:49;8.03;;;7.23;;
261;SDS011;114;48.260;10.988;2022-11-15T03:59:15;12.70;;;6.53;;
261;SDS011;114;48.260;10.988;2022-11-15T04:01:40;6.37;;;5.77;;
261;SDS011;114;48.260;10.988;2022-11-15T04:04:07;7.53;;;6.43;;
261;SDS011;114;48.260;10.988;2022-11-15T04:06:35;8.27;;;6.90;;
261;SDS011;114;48.260;10.988;2022-11-15T04:09:01;6.67;;;6.07;;
261;SDS011;114;48.260;10.988;2022-11-15T04:11:27;7.00;;;6.30;;
261;SDS011;114;48.260;10.988;2022-11-15T04:13:52;7.27;;;6.57;;
261;SDS011;114;48.260;10.988;2022-11-15T04:16:18;6.07;;;5.57;;
261;SDS011;114;48.260;10.988;2022-11-15T04:18:44;6.73;;;6.23;;
261;SDS011;114;48.260;10.988;2022-11-15T04:21:09;7.27;;;5.77;;
261;SDS011;114;48.260;10.988;2022-11-15T04:23:53;6.43;;;5.93;;
261;SDS011;114;48.260;10.988;2022-11-15T04:26:20;7.67;;;6.43;;
261;SDS011;114;48.260;10.988;2022-11-15T04:28:47;6.57;;;5.97;;
261;SDS011;114;48.260;10.988;2022-11-15T04:31:33;7.03;;;5.80;;
261;SDS011;114;48.260;10.988;2022-11-15T04:33:58;7.63;;;6.83;;
261;SDS011;114;48.260;10.988;2022-11-15T04:36:24;7.87;;;5.90;;
261;SDS011;114;48.260;10.988;2022-11-15T04:39:08;7.53;;;6.80;;
261;SDS011;114;48.260;10.988;2022-11-15T04:41:34;6.80;;;6.07;;
261;SDS011;114;48.260;10.988;2022-11-15T04:46:28;5.80;;;5.30;;
261;SDS011;114;48.260;10.988;2022-11-15T04:48:54;6.50;;;6.00;;
261;SDS011;114;48.260;10.988;2022-11-15T04:51:20;6.50;;;5.90;;
261;SDS011;114;48.260;10.988;2022-11-15T04:53:46;6.20;;;5.50;;
261;SDS011;114;48.260;10.988;2022-11-15T04:56:11;5.50;;;5.10;;
261;SDS011;114;48.260;10.988;2022-11-15T04:58:37;5.07;;;4.67;;
261;SDS011;114;48.260;10.988;2022-11-15T05:01:08;5.20;;;4.80;;
261;SDS011;114;48.260;10.988;2022-11-15T05:03:34;5.60;;;5.10;;
261;SDS011;114;48.260;10.988;2022-11-15T05:06:20;7.73;;;5.90;;
261;SDS011;114;48.260;10.988;2022-11-15T05:08:46;6.80;;;6.03;;
261;SDS011;114;48.260;10.988;2022-11-15T05:11:12;6.37;;;5.87;;
261;SDS011;114;48.260;10.988;2022-11-15T05:13:37;6.20;;;5.60;;
261;SDS011;114;48.260;10.988;2022-11-15T05:16:03;5.90;;;5.50;;
261;SDS011;114;48.260;10.988;2022-11-15T05:18:29;5.80;;;5.30;;
261;SDS011;114;48.260;10.988;2022-11-15T05:20:55;6.10;;;5.50;;
261;SDS011;114;48.260;10.988;2022-11-15T05:23:20;5.57;;;5.17;;
261;SDS011;114;48.260;10.988;2022-11-15T05:25:46;5.77;;;5.27;;
261;SDS011;114;48.260;10.988;2022-11-15T05:28:12;5.60;;;4.40;;
261;SDS011;114;48.260;10.988;2022-11-15T05:30:39;5.10;;;4.70;;
261;SDS011;114;48.260;10.988;2022-11-15T05:33:04;5.17;;;4.77;;
261;SDS011;114;48.260;10.988;2022-11-15T05:35:36;5.20;;;4.80;;
261;SDS011;114;48.260;10.988;2022-11-15T05:38:05;4.83;;;4.43;;
261;SDS011;114;48.260;10.988;2022-11-15T05:40:31;3.87;;;3.67;;
261;SDS011;114;48.260;10.988;2022-11-15T05:42:57;3.53;;;3.33;;
261;SDS011;114;48.260;10.988;2022-11-15T05:45:27;3.73;;;3.43;;
261;SDS011;114;48.260;10.988;2022-11-15T05:47:54;4.23;;;3.93;;
261;SDS011;114;48.260;10.988;2022-11-15T05:50:22;3.63;;;3.37;;
261;SDS011;114;48.260;10.988;2022-11-15T05:52:48;4.63;;;4.00;;
261;SDS011;114;48.260;10.988;2022-11-15T05:55:16;10.23;;;4.53;;
261;SDS011;114;48.260;10.988;2022-11-15T05:57:42;3.83;;;3.63;;
261;SDS011;114;48.260;10.988;2022-11-15T06:00:10;6.07;;;4.10;;
261;SDS011;114;48.260;10.988;2022-11-15T06:02:36;4.80;;;4.40;;
261;SDS011;114;48.260;10.988;2022-11-15T06:05:02;6.27;;;4.77;;
261;SDS011;114;48.260;10.988;2022-11-15T06:07:28;4.97;;;4.57;;
261;SDS011;114;48.260;10.988;2022-11-15T06:09:54;5.80;;;5.30;;
261;SDS011;114;48.260;10.988;2022-11-15T06:12:20;6.73;;;6.13;;
261;SDS011;114;48.260;10.988;2022-11-15T06:14:45;7.53;;;6.20;;
261;SDS011;114;48.260;10.988;2022-11-15T06:17:11;7.27;;;6.43;;
261;SDS011;114;48.260;10.988;2022-11-15T06:19:37;7.73;;;7.03;;
261;SDS011;114;48.260;10.988;2022-11-15T06:22:02;5.30;;;4.80;;
261;SDS011;114;48.260;10.988;2022-11-15T06:24:28;6.87;;;6.27;;
261;SDS011;114;48.260;10.988;2022-11-15T06:26:55;10.37;;;6.50;;
261;SDS011;114;48.260;10.988;2022-11-15T06:29:20;7.13;;;6.47;;
261;SDS011;114;48.260;10.988;2022-11-15T06:31:46;7.60;;;6.90;;
261;SDS011;114;48.260;10.988;2022-11-15T06:34:14;9.63;;;7.43;;
261;SDS011;114;48.260;10.988;2022-11-15T06:36:39;8.63;;;6.37;;
261;SDS011;114;48.260;10.988;2022-11-15T06:39:06;42.50;;;6.33;;
261;SDS011;114;48.260;10.988;2022-11-15T06:41:35;6.67;;;6.17;;
261;SDS011;114;48.260;10.988;2022-11-15T06:44:02;14.67;;;7.40;;
261;SDS011;114;48.260;10.988;2022-11-15T06:46:29;10.80;;;6.80;;
261;SDS011;114;48.260;10.988;2022-11-15T06:48:56;10.93;;;8.23;;
261;SDS011;114;48.260;10.988;2022-11-15T06:51:22;8.07;;;7.37;;
261;SDS011;114;48.260;10.988;2022-11-15T06:53:47;16.50;;;11.63;;
261;SDS011;114;48.260;10.988;2022-11-15T06:56:13;18.37;;;10.80;;
261;SDS011;114;48.260;10.988;2022-11-15T06:58:39;11.40;;;10.30;;
261;SDS011;114;48.260;10.988;2022-11-15T07:01:08;12.50;;;8.23;;
261;SDS011;114;48.260;10.988;2022-11-15T07:03:36;17.10;;;9.27;;
261;SDS011;114;48.260;10.988;2022-11-15T07:06:04;15.63;;;9.93;;
261;SDS011;114;48.260;10.988;2022-11-15T07:08:30;15.67;;;12.00;;
261;SDS011;114;48.260;10.988;2022-11-15T07:11:00;17.63;;;13.63;;
261;SDS011;114;48.260;10.988;2022-11-15T07:13:28;15.77;;;9.20;;
261;SDS011;114;48.260;10.988;2022-11-15T07:15:58;10.47;;;8.53;;
261;SDS011;114;48.260;10.988;2022-11-15T07:18:27;13.27;;;8.90;;
261;SDS011;114;48.260;10.988;2022-11-15T07:20:53;12.93;;;7.70;;
261;SDS011;114;48.260;10.988;2022-11-15T07:23:18;10.87;;;7.47;;
261;SDS011;114;48.260;10.988;2022-11-15T07:25:44;11.70;;;7.20;;
261;SDS011;114;48.260;10.988;2022-11-15T07:28:10;12.07;;;8.27;;
261;SDS011;114;48.260;10.988;2022-11-15T07:30:35;7.57;;;6.80;;
261;SDS011;114;48.260;10.988;2022-11-15T07:33:01;10.40;;;7.17;;
261;SDS011;114;48.260;10.988;2022-11-15T07:35:27;6.50;;;5.80;;
261;SDS011;114;48.260;10.988;2022-11-15T07:38:02;6.53;;;6.03;;
261;SDS011;114;48.260;10.988;2022-11-15T07:40:29;8.27;;;5.97;;
261;SDS011;114;48.260;10.988;2022-11-15T07:43:05;7.40;;;6.30;;
261;SDS011;114;48.260;10.988;2022-11-15T07:45:33;8.37;;;6.37;;
261;SDS011;114;48.260;10.988;2022-11-15T07:47:59;9.13;;;6.57;;
261;SDS011;114;48.260;10.988;2022-11-15T07:50:27;7.03;;;6.10;;
261;SDS011;114;48.260;10.988;2022-11-15T07:52:56;6.03;;;5.50;;
261;SDS011;114;48.260;10.988;2022-11-15T07:55:25;7.20;;;6.50;;
261;SDS011;114;48.260;10.988;2022-11-15T07:57:59;6.40;;;5.60;;
261;SDS011;114;48.260;10.988;2022-11-15T08:00:31;6.77;;;5.00;;
261;SDS011;114;48.260;10.988;2022-11-15T08:03:08;10.53;;;5.97;;
261;SDS011;114;48.260;10.988;2022-11-15T08:05:36;6.43;;;5.83;;
261;SDS011;114;48.260;10.988;2022-11-15T08:08:02;6.10;;;5.53;;
261;SDS011;114;48.260;10.988;2022-11-15T08:10:29;5.10;;;4.73;;
261;SDS011;114;48.260;10.988;2022-11-15T08:13:02;5.30;;;4.87;;
261;SDS011;114;48.260;10.988;2022-11-15T08:15:28;5.43;;;4.93;;
261;SDS011;114;48.260;10.988;2022-11-15T08:17:55;5.60;;;4.83;;
261;SDS011;114;48.260;10.988;2022-11-15T08:20:26;8.90;;;5.47;;
261;SDS011;114;48.260;10.988;2022-11-15T08:22:55;5.73;;;5.33;;
261;SDS011;114;48.260;10.988;2022-11-15T08:25:22;4.70;;;4.30;;
261;SDS011;114;48.260;10.988;2022-11-15T08:27:50;5.00;;;4.60;;
261;SDS011;114;48.260;10.988;2022-11-15T08:30:17;5.63;;;5.13;;
261;SDS011;114;48.260;10.988;2022-11-15T08:32:43;5.50;;;5.00;;
261;SDS011;114;48.260;10.988;2022-11-15T08:35:09;5.10;;;4.57;;
261;SDS011;114;48.260;10.988;2022-11-15T08:37:35;4.93;;;4.37;;
261;SDS011;114;48.260;10.988;2022-11-15T08:40:04;5.03;;;4.53;;
261;SDS011;114;48.260;10.988;2022-11-15T08:42:31;8.90;;;4.80;;
261;SDS011;114;48.260;10.988;2022-11-15T08:44:56;4.47;;;4.17;;
261;SDS011;114;48.260;10.988;2022-11-15T08:47:25;15.30;;;12.50;;
261;SDS011;114;48.260;10.988;2022-11-15T08:49:54;7.73;;;7.03;;
261;SDS011;114;48.260;10.988;2022-11-15T08:52:20;7.13;;;4.70;;
261;SDS011;114;48.260;10.988;2022-11-15T08:54:47;4.37;;;4.17;;
261;SDS011;114;48.260;10.988;2022-11-15T08:57:14;5.30;;;4.90;;
261;SDS011;114;48.260;10.988;2022-11-15T08:59:40;5.03;;;4.53;;
261;SDS011;114;48.260;10.988;2022-11-15T09:02:05;4.07;;;3.87;;
261;SDS011;114;48.260;10.988;2022-11-15T09:04:32;4.13;;;3.83;;
261;SDS011;114;48.260;10.988;2022-11-15T09:06:58;4.33;;;3.10;;
261;SDS011;114;48.260;10.988;2022-11-15T09:09:24;3.47;;;3.27;;
261;SDS011;114;48.260;10.988;2022-11-15T09:11:49;5.00;;;3.40;;
261;SDS011;114;48.260;10.988;2022-11-15T09:14:16;3.23;;;3.03;;
261;SDS011;114;48.260;10.988;2022-11-15T09:16:42;5.47;;;4.97;;
261;SDS011;114;48.260;10.988;2022-11-15T09:19:08;3.97;;;3.10;;
261;SDS011;114;48.260;10.988;2022-11-15T09:21:33;2.40;;;2.30;;
261;SDS011;114;48.260;10.988;2022-11-15T09:23:59;2.40;;;2.30;;
261;SDS011;114;48.260;10.988;2022-11-15T09:26:25;2.43;;;2.33;;
261;SDS011;114;48.260;10.988;2022-11-15T09:28:50;2.70;;;2.50;;
261;SDS011;114;48.260;10.988;2022-11-15T09:31:16;2.50;;;2.23;;
261;SDS011;114;48.260;10.988;2022-11-15T09:33:45;2.30;;;2.17;;
261;SDS011;114;48.260;10.988;2022-11-15T09:36:11;2.20;;;2.10;;
261;SDS011;114;48.260;10.988;2022-11-15T09:38:37;2.40;;;2.10;;
261;SDS011;114;48.260;10.988;2022-11-15T09:46:50;2.40;;;2.20;;
261;SDS011;114;48.260;10.988;2022-11-15T09:49:38;2.20;;;2.10;;
261;SDS011;114;48.260;10.988;2022-11-15T09:52:04;3.20;;;2.10;;
261;SDS011;114;48.260;10.988;2022-11-15T09:56:56;1.80;;;1.70;;
261;SDS011;114;48.260;10.988;2022-11-15T09:59:39;5.83;;;2.23;;
261;SDS011;114;48.260;10.988;2022-11-15T10:02:36;2.70;;;2.60;;
261;SDS011;114;48.260;10.988;2022-11-15T10:05:07;5.10;;;2.50;;
261;SDS011;114;48.260;10.988;2022-11-15T10:10:30;3.10;;;3.00;;
261;SDS011;114;48.260;10.988;2022-11-15T10:12:56;2.60;;;2.40;;
261;SDS011;114;48.260;10.988;2022-11-15T10:15:23;2.67;;;2.30;;
261;SDS011;114;48.260;10.988;2022-11-15T10:17:55;2.50;;;2.30;;
261;SDS011;114;48.260;10.988;2022-11-15T10:20:53;10.57;;;2.43;;
261;SDS011;114;48.260;10.988;2022-11-15T10:23:24;2.70;;;2.60;;
261;SDS011;114;48.260;10.988;2022-11-15T10:25:58;2.60;;;2.00;;
261;SDS011;114;48.260;10.988;2022-11-15T10:28:28;2.73;;;1.70;;
261;SDS011;114;48.260;10.988;2022-11-15T10:30:58;3.23;;;2.20;;
261;SDS011;114;48.260;10.988;2022-11-15T10:33:32;1.73;;;1.63;;
261;SDS011;114;48.260;10.988;2022-11-15T10:36:20;2.60;;;2.00;;
261;SDS011;114;48.260;10.988;2022-11-15T10:41:21;1.73;;;1.63;;
261;SDS011;114;48.260;10.988;2022-11-15T10:46:48;2.63;;;1.87;;
261;SDS011;114;48.260;10.988;2022-11-15T10:49:24;5.00;;;1.53;;
261;SDS011;114;48.260;10.988;2022-11-15T10:51:58;1.60;;;1.50;;
261;SDS011;114;48.260;10.988;2022-11-15T10:54:47;1.73;;;1.60;;
261;SDS011;114;48.260;10.988;2022-11-15T10:57:17;3.70;;;2.00;;
261;SDS011;114;48.260;10.988;2022-11-15T10:59:46;3.80;;;2.70;;
261;SDS011;114;48.260;10.988;2022-11-15T11:05:03;1.90;;;1.80;;
261;SDS011;114;48.260;10.988;2022-11-15T11:15:14;2.27;;;2.17;;
261;SDS011;114;48.260;10.988;2022-11-15T11:23:06;5.43;;;2.13;;
261;SDS011;114;48.260;10.988;2022-11-15T11:29:20;2.30;;;2.17;;
261;SDS011;114;48.260;10.988;2022-11-15T11:49:01;2.03;;;1.90;;
261;SDS011;114;48.260;10.988;2022-11-15T11:57:02;2.60;;;1.80;;
261;SDS011;114;48.260;10.988;2022-11-15T11:59:49;2.10;;;2.00;;
261;SDS011;114;48.260;10.988;2022-11-15T12:02:25;2.33;;;2.23;;
261;SDS011;114;48.260;10.988;2022-11-15T12:05:04;2.10;;;1.67;;
261;SDS011;114;48.260;10.988;2022-11-15T12:07:54;2.30;;;2.10;;
261;SDS011;114;48.260;10.988;2022-11-15T12:10:28;3.57;;;1.60;;
261;SDS011;114;48.260;10.988;2022-11-15T12:13:13;4.50;;;2.50;;
261;SDS011;114;48.260;10.988;2022-11-15T12:18:30;1.63;;;1.53;;
261;SDS011;114;48.260;10.988;2022-11-15T12:21:00;4.30;;;1.93;;
261;SDS011;114;48.260;10.988;2022-11-15T12:23:54;2.00;;;1.90;;
261;SDS011;114;48.260;10.988;2022-11-15T12:26:31;5.33;;;2.10;;
261;SDS011;114;48.260;10.988;2022-11-15T12:29:27;2.53;;;2.30;;
261;SDS011;114;48.260;10.988;2022-11-15T12:31:58;2.07;;;1.97;;
261;SDS011;114;48.260;10.988;2022-11-15T12:34:29;2.27;;;2.10;;
261;SDS011;114;48.260;10.988;2022-11-15T12:37:31;3.33;;;2.97;;
261;SDS011;114;48.260;10.988;2022-11-15T12:46:03;2.83;;;2.70;;
261;SDS011;114;48.260;10.988;2022-11-15T12:51:03;2.70;;;2.60;;
261;SDS011;114;48.260;10.988;2022-11-15T12:53:32;2.83;;;2.60;;
261;SDS011;114;48.260;10.988;2022-11-15T12:58:44;4.10;;;3.80;;
261;SDS011;114;48.260;10.988;2022-11-15T13:04:14;4.30;;;3.13;;
261;SDS011;114;48.260;10.988;2022-11-15T13:07:01;3.83;;;2.70;;
261;SDS011;114;48.260;10.988;2022-11-15T13:14:41;2.90;;;2.80;;
261;SDS011;114;48.260;10.988;2022-11-15T13:22:39;3.07;;;2.80;;
261;SDS011;114;48.260;10.988;2022-11-15T13:27:54;4.27;;;3.97;;
261;SDS011;114;48.260;10.988;2022-11-15T13:30:25;3.17;;;2.97;;
261;SDS011;114;48.260;10.988;2022-11-15T13:32:54;3.00;;;2.80;;
261;SDS011;114;48.260;10.988;2022-11-15T13:37:48;3.50;;;3.20;;
261;SDS011;114;48.260;10.988;2022-11-15T13:42:43;5.47;;;3.30;;
261;SDS011;114;48.260;10.988;2022-11-15T13:45:13;10.37;;;4.80;;
261;SDS011;114;48.260;10.988;2022-11-15T13:47:40;2.90;;;2.70;;
261;SDS011;114;48.260;10.988;2022-11-15T13:50:06;3.30;;;3.00;;
261;SDS011;114;48.260;10.988;2022-11-15T13:52:36;6.10;;;4.50;;
261;SDS011;114;48.260;10.988;2022-11-15T13:55:18;6.30;;;2.70;;
261;SDS011;114;48.260;10.988;2022-11-15T13:57:51;4.10;;;3.80;;
261;SDS011;114;48.260;10.988;2022-11-15T14:03:27;3.73;;;3.50;;
261;SDS011;114;48.260;10.988;2022-11-15T14:06:11;3.50;;;3.30;;
261;SDS011;114;48.260;10.988;2022-11-15T14:11:27;4.53;;;3.93;;
261;SDS011;114;48.260;10.988;2022-11-15T14:14:12;3.10;;;2.80;;
261;SDS011;114;48.260;10.988;2022-11-15T14:16:47;3.50;;;3.20;;
261;SDS011;114;48.260;10.988;2022-11-15T14:24:34;5.90;;;3.90;;
261;SDS011;114;48.260;10.988;2022-11-15T14:29:50;4.77;;;4.37;;
261;SDS011;114;48.260;10.988;2022-11-15T14:32:25;4.70;;;4.30;;
261;SDS011;114;48.260;10.988;2022-11-15T14:34:54;9.03;;;3.90;;
261;SDS011;114;48.260;10.988;2022-11-15T14:37:26;5.10;;;3.80;;
261;SDS011;114;48.260;10.988;2022-11-15T14:40:04;5.40;;;3.90;;
261;SDS011;114;48.260;10.988;2022-11-15T14:42:32;5.33;;;4.37;;
261;SDS011;114;48.260;10.988;2022-11-15T14:44:58;6.80;;;4.57;;
261;SDS011;114;48.260;10.988;2022-11-15T14:47:24;7.27;;;4.10;;
261;SDS011;114;48.260;10.988;2022-11-15T14:49:50;4.57;;;4.17;;
261;SDS011;114;48.260;10.988;2022-11-15T14:52:29;10.40;;;5.57;;
261;SDS011;114;48.260;10.988;2022-11-15T14:54:59;8.53;;;5.80;;
261;SDS011;114;48.260;10.988;2022-11-15T14:57:27;5.17;;;4.67;;
261;SDS011;114;48.260;10.988;2022-11-15T14:59:54;7.47;;;4.27;;
261;SDS011;114;48.260;10.988;2022-11-15T15:04:54;10.97;;;5.50;;
261;SDS011;114;48.260;10.988;2022-11-15T15:07:19;10.93;;;6.00;;
261;SDS011;114;48.260;10.988;2022-11-15T15:09:47;10.93;;;5.77;;
261;SDS011;114;48.260;10.988;2022-11-15T15:14:45;24.50;;;8.80;;
261;SDS011;114;48.260;10.988;2022-11-15T15:17:14;10.97;;;5.40;;
261;SDS011;114;48.260;10.988;2022-11-15T15:19:40;14.33;;;5.90;;
261;SDS011;114;48.260;10.988;2022-11-15T15:22:09;16.80;;;5.37;;
261;SDS011;114;48.260;10.988;2022-11-15T15:24:43;17.90;;;5.67;;
261;SDS011;114;48.260;10.988;2022-11-15T15:27:11;14.40;;;5.33;;
261;SDS011;114;48.260;10.988;2022-11-15T15:29:37;17.33;;;6.07;;
261;SDS011;114;48.260;10.988;2022-11-15T15:32:20;14.17;;;5.10;;
261;SDS011;114;48.260;10.988;2022-11-15T15:34:46;5.40;;;4.30;;
261;SDS011;114;48.260;10.988;2022-11-15T15:39:49;19.57;;;3.67;;
261;SDS011;114;48.260;10.988;2022-11-15T15:42:21;17.80;;;4.43;;
261;SDS011;114;48.260;10.988;2022-11-15T15:44:47;6.50;;;4.57;;
261;SDS011;114;48.260;10.988;2022-11-15T15:47:18;4.70;;;4.30;;
261;SDS011;114;48.260;10.988;2022-11-15T15:49:46;6.27;;;3.63;;
261;SDS011;114;48.260;10.988;2022-11-15T15:52:12;6.10;;;4.23;;
261;SDS011;114;48.260;10.988;2022-11-15T15:54:38;4.73;;;4.33;;
261;SDS011;114;48.260;10.988;2022-11-15T15:57:05;4.87;;;3.97;;
261;SDS011;114;48.260;10.988;2022-11-15T15:59:33;7.13;;;3.80;;
261;SDS011;114;48.260;10.988;2022-11-15T16:01:59;3.80;;;3.50;;
261;SDS011;114;48.260;10.988;2022-11-15T16:04:27;3.90;;;3.60;;
261;SDS011;114;48.260;10.988;2022-11-15T16:06:57;10.30;;;4.00;;
261;SDS011;114;48.260;10.988;2022-11-15T16:09:28;16.47;;;4.23;;
261;SDS011;114;48.260;10.988;2022-11-15T16:12:12;3.80;;;3.40;;
261;SDS011;114;48.260;10.988;2022-11-15T16:14:39;3.57;;;3.37;;
261;SDS011;114;48.260;10.988;2022-11-15T16:17:05;4.70;;;4.20;;
261;SDS011;114;48.260;10.988;2022-11-15T16:19:30;6.13;;;3.27;;
261;SDS011;114;48.260;10.988;2022-11-15T16:21:56;5.80;;;3.60;;
261;SDS011;114;48.260;10.988;2022-11-15T16:24:22;4.43;;;4.10;;
261;SDS011;114;48.260;10.988;2022-11-15T16:26:48;3.87;;;3.57;;
261;SDS011;114;48.260;10.988;2022-11-15T16:29:17;5.30;;;3.80;;
261;SDS011;114;48.260;10.988;2022-11-15T16:31:42;3.77;;;3.30;;
261;SDS011;114;48.260;10.988;2022-11-15T16:34:08;5.40;;;3.60;;
261;SDS011;114;48.260;10.988;2022-11-15T16:36:34;7.43;;;3.50;;
261;SDS011;114;48.260;10.988;2022-11-15T16:39:00;3.70;;;3.40;;
261;SDS011;114;48.260;10.988;2022-11-15T16:41:30;3.70;;;3.50;;
261;SDS011;114;48.260;10.988;2022-11-15T16:43:56;7.70;;;6.63;;
261;SDS011;114;48.260;10.988;2022-11-15T16:46:23;8.53;;;5.60;;
261;SDS011;114;48.260;10.988;2022-11-15T16:48:50;5.67;;;5.07;;
261;SDS011;114;48.260;10.988;2022-11-15T16:51:18;4.17;;;3.83;;
261;SDS011;114;48.260;10.988;2022-11-15T16:53:44;5.63;;;5.00;;
261;SDS011;114;48.260;10.988;2022-11-15T16:56:21;4.73;;;4.30;;
261;SDS011;114;48.260;10.988;2022-11-15T16:58:51;4.73;;;4.27;;
261;SDS011;114;48.260;10.988;2022-11-15T17:01:22;9.03;;;4.07;;
261;SDS011;114;48.260;10.988;2022-11-15T17:03:49;4.70;;;4.30;;
261;SDS011;114;48.260;10.988;2022-11-15T17:06:16;12.73;;;4.70;;
261;SDS011;114;48.260;10.988;2022-11-15T17:08:43;5.23;;;4.43;;
261;SDS011;114;48.260;10.988;2022-11-15T17:11:15;7.33;;;4.57;;
261;SDS011;114;48.260;10.988;2022-11-15T17:13:46;4.37;;;3.97;;
261;SDS011;114;48.260;10.988;2022-11-15T17:16:14;8.43;;;7.53;;
261;SDS011;114;48.260;10.988;2022-11-15T17:18:41;15.03;;;9.27;;
261;SDS011;114;48.260;10.988;2022-11-15T17:21:15;11.33;;;8.07;;
261;SDS011;114;48.260;10.988;2022-11-15T17:23:42;8.33;;;7.00;;
261;SDS011;114;48.260;10.988;2022-11-15T17:26:10;12.40;;;5.83;;
261;SDS011;114;48.260;10.988;2022-11-15T17:28:37;9.87;;;6.40;;
261;SDS011;114;48.260;10.988;2022-11-15T17:31:07;5.13;;;4.73;;
261;SDS011;114;48.260;10.988;2022-11-15T17:33:36;5.80;;;4.63;;
261;SDS011;114;48.260;10.988;2022-11-15T17:36:04;5.13;;;4.73;;
261;SDS011;114;48.260;10.988;2022-11-15T17:38:31;6.70;;;5.97;;
261;SDS011;114;48.260;10.988;2022-11-15T17:41:11;7.27;;;6.03;;
261;SDS011;114;48.260;10.988;2022-11-15T17:43:39;7.37;;;5.90;;
261;SDS011;114;48.260;10.988;2022-11-15T17:46:07;12.40;;;5.80;;
261;SDS011;114;48.260;10.988;2022-11-15T17:48:36;7.27;;;5.70;;
261;SDS011;114;48.260;10.988;2022-11-15T17:51:02;10.10;;;6.73;;
261;SDS011;114;48.260;10.988;2022-11-15T17:53:31;7.10;;;4.73;;
261;SDS011;114;48.260;10.988;2022-11-15T17:56:02;6.43;;;4.90;;
261;SDS011;114;48.260;10.988;2022-11-15T17:58:30;7.13;;;6.20;;
261;SDS011;114;48.260;10.988;2022-11-15T18:03:50;6.40;;;5.70;;
261;SDS011;114;48.260;10.988;2022-11-15T18:06:17;10.33;;;6.20;;
261;SDS011;114;48.260;10.988;2022-11-15T18:08:45;5.23;;;4.83;;
261;SDS011;114;48.260;10.988;2022-11-15T18:11:13;4.83;;;4.10;;
261;SDS011;114;48.260;10.988;2022-11-15T18:13:47;4.70;;;4.27;;
261;SDS011;114;48.260;10.988;2022-11-15T18:16:16;7.37;;;4.70;;